Time;durP1;ratioP1;P1;durP2;ratioP2;P2;SDS_P1;SDS_P2;PMS_P1;PMS_P2;Temp;Humidity;BMP_temperature;BMP_pressure;BME280_temperature;BME280_humidity;BME280_pressure;Samples;Min_cycle;Max_cycle;Signal;HPM_P1;HPM_P2
2021/08/11 00:01:03;;;;;;;35.92;19.63;;;;;;;20.69;79.08;99688.09;5154760;27;20071;-77
2021/08/11 00:03:29;;;;;;;38.55;20.13;;;;;;;20.67;79.01;99684.78;5155620;27;20465;-75
2021/08/11 00:05:55;;;;;;;37.35;19.52;;;;;;;20.69;78.72;99688.09;5155078;27;20384;-74
2021/08/11 00:08:20;;;;;;;38.60;20.30;;;;;;;20.70;78.55;99683.56;5154903;27;20122;-74
2021/08/11 00:10:46;;;;;;;36.60;18.40;;;;;;;20.72;78.51;99692.31;5136209;27;20488;-76
2021/08/11 00:13:12;;;;;;;35.25;19.40;;;;;;;20.66;78.90;99691.16;5154192;27;20039;-73
2021/08/11 00:15:38;;;;;;;41.60;20.65;;;;;;;20.65;78.66;99685.97;5154613;27;20514;-74
2021/08/11 00:18:04;;;;;;;40.88;19.58;;;;;;;20.65;78.67;99686.81;5154314;27;20403;-75
2021/08/11 00:20:29;;;;;;;38.20;19.63;;;;;;;20.65;78.59;99685.97;5154528;27;20035;-73
2021/08/11 00:22:55;;;;;;;37.67;19.67;;;;;;;20.62;78.82;99684.50;5154325;27;20510;-73
2021/08/11 00:25:21;;;;;;;36.47;19.88;;;;;;;20.59;79.07;99694.78;5154129;27;20039;-72
2021/08/11 00:27:47;;;;;;;35.25;19.58;;;;;;;20.59;79.45;99698.28;5153897;27;20046;-73
2021/08/11 00:30:13;;;;;;;39.78;19.90;;;;;;;20.58;79.35;99702.00;5135594;27;20042;-74
2021/08/11 00:32:39;;;;;;;37.85;20.75;;;;;;;20.54;79.45;99698.00;5135803;27;20403;-74
2021/08/11 00:35:06;;;;;;;41.88;22.25;;;;;;;20.50;79.84;99700.22;5153888;27;20454;-73
2021/08/11 00:37:32;;;;;;;40.30;22.77;;;;;;;20.43;80.09;99709.19;5118466;27;20061;-73
2021/08/11 00:39:59;;;;;;;50.17;22.70;;;;;;;20.36;80.17;99714.44;5135269;27;20495;-78
2021/08/11 00:42:26;;;;;;;46.50;22.67;;;;;;;20.33;80.38;99698.69;5135613;27;20122;-73
2021/08/11 00:44:53;;;;;;;40.95;21.52;;;;;;;20.34;80.61;99700.38;5135145;27;20042;-73
2021/08/11 00:47:20;;;;;;;43.78;21.52;;;;;;;20.32;80.54;99697.84;5153100;27;20054;-75
2021/08/11 00:49:46;;;;;;;41.95;21.42;;;;;;;20.32;80.12;99691.66;5135106;27;20038;-77
2021/08/11 00:52:13;;;;;;;43.35;21.13;;;;;;;20.32;80.10;99692.47;5134926;27;20042;-76
2021/08/11 00:54:41;;;;;;;37.38;20.63;;;;;;;20.35;79.83;99680.56;5135511;27;20121;-74
2021/08/11 00:57:09;;;;;;;40.53;19.58;;;;;;;20.35;79.74;99680.56;5153452;27;20042;-75
2021/08/11 00:59:36;;;;;;;37.45;20.98;;;;;;;20.35;79.63;99680.56;5118145;27;20051;-75
2021/08/11 01:02:03;;;;;;;;;;;;;;;20.30;80.11;99672.19;5118482;27;20129;-76
2021/08/11 01:04:29;;;;;;;40.47;21.13;;;;;;;20.28;80.17;99664.31;5134831;27;20010;-73
2021/08/11 01:06:55;;;;;;;42.78;22.60;;;;;;;20.28;80.37;99664.31;5117904;27;20129;-73
2021/08/11 01:09:23;;;;;;;41.55;21.08;;;;;;;20.28;80.95;99671.56;5134812;27;20043;-74
2021/08/11 01:11:55;;;;;;;49.10;25.45;;;;;;;20.26;80.90;99674.44;5134925;27;20572;-76
2021/08/11 01:14:23;;;;;;;40.72;22.85;;;;;;;20.26;81.22;99676.25;5135182;27;20121;-74
2021/08/11 01:16:50;;;;;;;44.58;21.75;;;;;;;20.20;81.01;99684.03;5110246;28;20043;-73
2021/08/11 01:19:18;;;;;;;41.83;24.02;;;;;;;20.16;81.51;99682.75;5132210;28;20514;-77
2021/08/11 01:21:55;;;;;;;44.88;23.63;;;;;;;20.11;81.63;99674.41;5130485;28;20126;-72
2021/08/11 01:24:29;;;;;;;44.83;24.33;;;;;;;20.09;81.28;99671.03;5114305;28;20038;-73
2021/08/11 01:27:11;;;;;;;44.58;22.85;;;;;;;20.10;81.50;99667.34;5114172;28;20504;-73
2021/08/11 01:29:40;;;;;;;47.60;23.73;;;;;;;20.12;81.21;99665.28;5114577;28;20104;-73
2021/08/11 01:32:14;;;;;;;43.28;23.85;;;;;;;20.08;81.58;99664.00;5114094;28;20043;-78
2021/08/11 01:34:46;;;;;;;48.40;24.50;;;;;;;20.11;81.11;99669.03;5099444;28;20053;-78
2021/08/11 01:37:23;;;;;;;47.78;24.30;;;;;;;20.11;81.29;99669.03;5115693;28;20051;-72
2021/08/11 01:39:50;;;;;;;51.97;24.20;;;;;;;20.07;81.79;99666.88;5134389;28;20453;-73
2021/08/11 01:42:26;;;;;;;43.72;22.77;;;;;;;20.02;81.72;99664.72;5118090;28;20055;-73
2021/08/11 01:44:56;;;;;;;41.53;23.52;;;;;;;20.06;81.26;99666.00;5135756;28;20047;-72
2021/08/11 01:47:24;;;;;;;46.80;23.38;;;;;;;20.06;81.53;99670.56;5115533;28;20081;-75
2021/08/11 01:49:53;;;;;;;45.38;23.38;;;;;;;20.04;81.60;99671.56;5097552;28;20411;-72
2021/08/11 01:52:19;;;;;;;41.63;22.48;;;;;;;20.02;81.71;99668.22;5114298;28;20041;-71
2021/08/11 01:54:46;;;;;;;45.42;21.88;;;;;;;20.02;81.56;99670.09;5114017;28;20058;-73
2021/08/11 01:57:14;;;;;;;41.55;21.42;;;;;;;20.03;81.52;99671.75;5132333;27;20054;-73
2021/08/11 01:59:40;;;;;;;39.60;21.40;;;;;;;20.10;80.96;99658.44;5135025;27;20071;-76
2021/08/11 02:02:07;;;;;;;40.70;22.77;;;;;;;20.13;81.34;99656.22;5119912;27;20042;-74
2021/08/11 02:04:35;;;;;;;39.10;21.63;;;;;;;20.13;81.72;99656.22;5137774;27;20039;-73
2021/08/11 02:07:01;;;;;;;39.03;21.73;;;;;;;20.14;81.81;99662.44;5121048;27;20109;-79
2021/08/11 02:09:29;;;;;;;49.25;22.05;;;;;;;20.16;81.54;99663.94;5120536;27;20495;-75
2021/08/11 02:11:55;;;;;;;44.53;22.92;;;;;;;20.18;81.51;99661.88;5120142;27;20543;-73
2021/08/11 02:14:23;;;;;;;39.78;21.42;;;;;;;20.22;81.62;99666.91;5117564;27;20046;-75
2021/08/11 02:16:49;;;;;;;37.75;21.17;;;;;;;20.22;81.85;99664.22;5134926;27;20096;-74
2021/08/11 02:19:16;;;;;;;43.13;21.88;;;;;;;20.25;81.68;99669.22;5135002;27;20043;-78
2021/08/11 02:21:42;;;;;;;41.78;21.52;;;;;;;20.24;81.51;99670.22;5134630;27;20039;-74
2021/08/11 02:24:09;;;;;;;40.67;20.75;;;;;;;20.19;81.29;99674.31;5116301;27;20045;-75
2021/08/11 02:26:51;;;;;;;39.92;20.83;;;;;;;20.20;81.35;99684.03;5137592;27;20057;-75
2021/08/11 02:29:23;;;;;;;46.03;22.75;;;;;;;20.23;80.99;99685.53;5138095;27;20068;-75
2021/08/11 02:32:23;;;;;;;37.63;21.45;;;;;;;20.24;81.00;99683.66;5138330;27;20503;-73
2021/08/11 02:35:00;;;;;;;37.85;22.15;;;;;;;20.26;81.03;99682.50;5137865;27;20091;-74
2021/08/11 02:37:49;;;;;;;41.22;21.63;;;;;;;20.25;80.45;99691.56;5138160;27;20062;-72
2021/08/11 02:40:15;;;;;;;41.38;21.55;;;;;;;20.26;80.80;99692.38;5120624;27;20070;-76
2021/08/11 02:42:53;;;;;;;39.65;21.02;;;;;;;20.33;80.86;99690.66;5156099;27;20055;-76
2021/08/11 02:45:19;;;;;;;42.08;21.63;;;;;;;20.32;81.01;99694.34;5138024;27;20034;-76
2021/08/11 02:47:47;;;;;;;45.28;21.15;;;;;;;20.30;80.47;99701.75;5137418;27;20103;-74
2021/08/11 02:50:14;;;;;;;;;;;;;;;20.30;80.37;99699.06;5137962;27;20039;-76
2021/08/11 02:52:45;;;;;;;43.22;22.73;;;;;;;20.29;80.56;99708.16;5137550;27;19935;-74
2021/08/11 02:55:11;;;;;;;40.33;21.07;;;;;;;20.27;80.47;99710.16;5137331;27;20054;-72
2021/08/11 02:57:38;;;;;;;48.35;22.17;;;;;;;20.21;80.73;99711.72;5156076;27;20054;-74
2021/08/11 03:00:06;;;;;;;43.60;22.70;;;;;;;20.22;80.56;99713.38;5120250;27;20114;-76
2021/08/11 03:02:31;;;;;;;;;;;;;;;20.23;80.41;99714.25;5156638;27;20054;-72
2021/08/11 03:04:58;;;;;;;44.88;20.90;;;;;;;20.19;80.18;99714.59;5120273;27;20367;-74
2021/08/11 03:07:24;;;;;;;40.67;20.55;;;;;;;20.21;80.50;99711.72;5120621;27;20106;-76
2021/08/11 03:09:51;;;;;;;44.22;23.95;;;;;;;20.21;80.08;99711.72;5136255;27;20046;-74
2021/08/11 03:12:17;;;;;;;40.92;22.02;;;;;;;20.23;79.85;99714.25;5136884;27;20357;-73
2021/08/11 03:14:44;;;;;;;45.10;22.60;;;;;;;20.25;79.91;99712.19;5120064;27;20035;-78
2021/08/11 03:17:11;;;;;;;47.88;23.63;;;;;;;20.30;79.66;99723.22;5104983;27;20183;-76
2021/08/11 03:19:39;;;;;;;46.17;23.05;;;;;;;20.34;79.59;99724.56;5138458;27;20042;-76
2021/08/11 03:22:07;;;;;;;42.25;23.05;;;;;;;20.35;79.07;99731.59;5137074;27;20049;-80
2021/08/11 03:24:34;;;;;;;49.42;23.80;;;;;;;20.38;79.33;99733.91;5136609;27;20045;-76
2021/08/11 03:27:00;;;;;;;37.20;19.60;;;;;;;20.35;78.60;99732.44;5136941;27;20041;-73
2021/08/11 03:29:28;;;;;;;39.58;19.77;;;;;;;20.36;78.47;99735.94;5136945;27;20047;-76
2021/08/11 03:31:54;;;;;;;47.42;22.95;;;;;;;20.40;79.22;99747.16;5137108;27;20046;-74
2021/08/11 03:34:20;;;;;;;40.78;22.10;;;;;;;20.39;79.12;99745.47;5136703;27;20046;-76
2021/08/11 03:36:50;;;;;;;45.70;22.50;;;;;;;20.37;79.24;99753.72;5136735;27;20046;-76
2021/08/11 03:39:16;;;;;;;42.33;21.98;;;;;;;20.34;79.38;99754.09;5155774;27;20053;-75
2021/08/11 03:41:43;;;;;;;38.92;19.42;;;;;;;20.32;79.07;99756.94;5136694;27;20046;-74
2021/08/11 03:44:08;;;;;;;36.60;19.98;;;;;;;20.34;78.97;99756.78;5136336;27;20110;-79
2021/08/11 03:46:37;;;;;;;41.88;20.80;;;;;;;20.36;79.25;99768.16;5136564;27;20058;-72
2021/08/11 03:49:04;;;;;;;42.25;20.42;;;;;;;20.37;79.02;99769.84;5154830;27;20173;-74
2021/08/11 03:51:31;;;;;;;38.03;20.48;;;;;;;20.37;79.00;99769.84;5154848;27;20083;-79
2021/08/11 03:53:57;;;;;;;36.50;20.02;;;;;;;20.37;79.16;99769.84;5154527;27;20045;-75
2021/08/11 03:56:22;;;;;;;43.45;21.27;;;;;;;20.36;78.98;99770.84;5136422;27;20042;-77
2021/08/11 03:58:48;;;;;;;41.38;20.70;;;;;;;20.37;79.49;99780.59;5119020;27;20046;-77
2021/08/11 04:01:14;;;;;;;44.25;21.42;;;;;;;20.37;79.02;99783.28;5136021;27;20047;-76
2021/08/11 04:03:40;;;;;;;36.40;18.98;;;;;;;20.36;79.07;99784.28;5154865;27;20081;-75
2021/08/11 04:06:05;;;;;;;34.50;19.92;;;;;;;20.34;79.05;99789.03;5154718;27;20050;-75
2021/08/11 04:08:31;;;;;;;34.50;19.33;;;;;;;20.30;79.29;99775.13;5154211;27;20122;-75
2021/08/11 04:11:03;;;;;;;35.92;19.40;;;;;;;20.33;79.44;99781.97;5155030;27;20146;-76
2021/08/11 04:13:28;;;;;;;42.45;19.85;;;;;;;20.39;79.67;99788.47;5155717;27;20066;-75
2021/08/11 04:15:54;;;;;;;42.85;20.58;;;;;;;20.40;79.84;99788.31;5154719;27;20175;-76
2021/08/11 04:18:20;;;;;;;41.38;20.45;;;;;;;20.39;79.97;99789.31;5154452;27;20050;-75
2021/08/11 04:20:46;;;;;;;41.75;21.98;;;;;;;20.40;79.82;99790.13;5154746;27;20123;-78
2021/08/11 04:23:12;;;;;;;46.67;21.20;;;;;;;20.39;79.57;99785.78;5154006;27;20046;-76
2021/08/11 04:25:40;;;;;;;43.80;20.30;;;;;;;20.43;79.36;99790.63;5154353;27;20133;-77
2021/08/11 04:28:07;;;;;;;49.22;24.73;;;;;;;20.49;79.92;99789.91;5154822;27;20115;-78
2021/08/11 04:30:33;;;;;;;43.55;21.33;;;;;;;20.47;79.50;99786.59;5154992;27;20542;-79
2021/08/11 04:32:59;;;;;;;48.63;20.83;;;;;;;20.52;79.68;99783.31;5136177;27;20038;-76
2021/08/11 04:35:25;;;;;;;47.35;19.88;;;;;;;20.57;79.34;99780.09;5154736;27;20042;-82
2021/08/11 04:37:50;;;;;;;52.15;23.30;;;;;;;20.55;78.97;99777.59;5154912;27;20106;-76
2021/08/11 04:40:16;;;;;;;46.78;21.90;;;;;;;20.58;79.70;99773.72;5154529;27;21010;-80
2021/08/11 04:42:42;;;;;;;49.83;24.25;;;;;;;20.54;80.32;99767.88;5136511;27;20041;-79
2021/08/11 04:45:09;;;;;;;49.30;22.73;;;;;;;20.58;80.97;99771.84;5136492;27;20035;-78
2021/08/11 04:47:35;;;;;;;50.23;25.00;;;;;;;20.66;81.51;99773.63;5136652;27;20541;-79
2021/08/11 04:50:00;;;;;;;52.25;25.55;;;;;;;20.78;81.82;99761.44;5136282;27;20300;-78
2021/08/11 04:52:26;;;;;;;53.88;32.17;;;;;;;20.89;81.79;99762.03;5154264;27;20050;-78
2021/08/11 04:54:52;;;;;;;53.17;28.63;;;;;;;21.00;81.26;99758.91;5154364;27;20416;-78
2021/08/11 04:57:18;;;;;;;53.13;28.52;;;;;;;21.07;81.40;99764.38;5153594;27;20084;-76
2021/08/11 04:59:43;;;;;;;56.45;26.00;;;;;;;21.14;81.55;99766.13;5153621;27;20039;-78
2021/08/11 05:02:09;;;;;;;47.80;24.88;;;;;;;21.14;81.12;99762.59;5153904;27;20154;-77
2021/08/11 05:04:34;;;;;;;47.25;22.55;;;;;;;21.12;80.35;99761.94;5153437;27;20041;-78
2021/08/11 05:07:03;;;;;;;41.72;22.77;;;;;;;21.08;80.01;99758.78;5154387;27;20519;-81
2021/08/11 05:09:31;;;;;;;53.42;24.27;;;;;;;20.93;80.11;99756.09;5153616;27;20039;-77
2021/08/11 05:11:56;;;;;;;46.35;21.63;;;;;;;20.81;79.21;99761.09;5154187;27;20045;-79
2021/08/11 05:14:22;;;;;;;43.00;21.83;;;;;;;20.81;79.19;99763.78;5153761;27;20125;-78
2021/08/11 05:16:48;;;;;;;49.90;21.10;;;;;;;20.81;79.20;99760.25;5154466;27;20066;-77
2021/08/11 05:19:13;;;;;;;49.03;22.98;;;;;;;20.85;79.34;99748.94;5135333;27;20479;-79
2021/08/11 05:21:39;;;;;;;54.30;25.08;;;;;;;20.91;80.38;99752.78;5154061;27;20041;-78
2021/08/11 05:24:05;;;;;;;48.45;23.50;;;;;;;20.99;80.56;99743.78;5153439;27;20439;-78
2021/08/11 05:26:31;;;;;;;48.45;23.25;;;;;;;21.03;80.65;99747.75;5153734;27;20042;-75
2021/08/11 05:28:56;;;;;;;49.33;23.65;;;;;;;21.05;80.59;99739.50;5153448;27;20035;-81
2021/08/11 05:31:22;;;;;;;50.80;22.58;;;;;;;21.08;79.85;99739.97;5153810;27;20034;-79
2021/08/11 05:33:48;;;;;;;52.00;22.67;;;;;;;21.10;80.02;99743.31;5139585;27;20051;-80
2021/08/11 05:36:14;;;;;;;51.67;23.45;;;;;;;21.11;79.49;99734.22;5157504;27;20046;-74
2021/08/11 05:38:40;;;;;;;53.17;23.73;;;;;;;21.12;79.27;99735.91;5157953;27;20069;-78
2021/08/11 05:41:06;;;;;;;60.63;24.77;;;;;;;21.14;78.95;99733.84;5157547;27;20134;-76
2021/08/11 05:43:33;;;;;;;44.88;22.85;;;;;;;21.28;79.03;99739.41;5158557;27;20541;-76
2021/08/11 05:45:59;;;;;;;47.42;22.58;;;;;;;21.35;78.85;99734.97;5167448;27;20047;-76
2021/08/11 05:48:24;;;;;;;45.83;21.50;;;;;;;21.43;77.59;99732.19;5164199;27;20050;-79
2021/08/11 05:50:50;;;;;;;53.75;22.92;;;;;;;21.47;77.24;99736.16;5159396;27;20038;-76
2021/08/11 05:53:19;;;;;;;47.60;21.92;;;;;;;21.54;77.93;99736.22;5158257;27;20592;-78
2021/08/11 05:55:45;;;;;;;50.72;23.48;;;;;;;21.58;77.48;99723.25;5105984;27;20049;-80
2021/08/11 05:58:11;;;;;;;38.03;21.70;;;;;;;21.65;77.11;99725.00;5139114;27;20047;-78
2021/08/11 06:00:38;;;;;;;44.93;23.63;;;;;;;21.62;76.72;99729.91;5158529;27;20046;-76
2021/08/11 06:03:04;;;;;;;42.35;22.13;;;;;;;21.65;77.22;99734.94;5157094;27;20402;-80
2021/08/11 06:05:38;;;;;;;43.20;21.30;;;;;;;21.69;76.06;99730.84;5123586;27;20398;-77
2021/08/11 06:08:04;;;;;;;39.63;20.02;;;;;;;21.67;75.79;99743.66;5157848;27;20038;-80
2021/08/11 06:10:30;;;;;;;39.85;18.00;;;;;;;21.65;75.66;99734.94;5161274;27;20046;-79
2021/08/11 06:12:56;;;;;;;39.55;17.45;;;;;;;21.60;75.27;99726.59;5142738;27;20094;-78
2021/08/11 06:15:22;;;;;;;36.28;16.95;;;;;;;21.49;74.84;99730.56;5161848;27;20042;-78
2021/08/11 06:17:49;;;;;;;35.63;16.92;;;;;;;21.40;75.36;99729.84;5157905;27;20081;-76
2021/08/11 06:20:21;;;;;;;35.80;16.63;;;;;;;21.34;75.36;99727.91;5157701;27;20150;-80
2021/08/11 06:22:48;;;;;;;43.10;18.27;;;;;;;21.34;75.46;99728.72;5157109;27;20087;-76
2021/08/11 06:25:14;;;;;;;44.60;17.40;;;;;;;21.29;75.28;99731.16;5157248;27;20039;-79
2021/08/11 06:27:40;;;;;;;46.88;18.92;;;;;;;21.24;76.46;99732.75;5123299;27;20043;-77
2021/08/11 06:30:09;;;;;;;44.75;17.88;;;;;;;21.21;75.74;99736.66;5156746;27;20418;-81
2021/08/11 06:32:35;;;;;;;46.92;17.48;;;;;;;21.15;76.42;99732.84;5139933;27;20045;-78
2021/08/11 06:35:02;;;;;;;41.92;17.90;;;;;;;21.16;76.49;99736.38;5121859;27;20042;-77
2021/08/11 06:37:28;;;;;;;40.08;15.18;;;;;;;21.17;74.91;99735.31;5158324;27;20407;-78
2021/08/11 06:39:54;;;;;;;29.55;14.48;;;;;;;21.21;74.82;99730.41;5157367;27;20035;-78
2021/08/11 06:42:20;;;;;;;29.75;15.38;;;;;;;21.22;74.24;99737.47;5156934;27;20046;-84
2021/08/11 06:44:56;;;;;;;31.30;14.80;;;;;;;21.26;74.54;99736.06;5137069;27;20570;-81
2021/08/11 06:47:22;;;;;;;40.28;15.65;;;;;;;21.26;74.12;99731.53;5138485;27;20047;-81
2021/08/11 06:49:48;;;;;;;38.95;16.67;;;;;;;21.20;74.73;99726.91;5138364;27;20050;-81
2021/08/11 06:52:16;;;;;;;47.00;17.90;;;;;;;21.15;74.76;99723.94;5121265;27;20041;-75
2021/08/11 06:54:48;;;;;;;56.50;18.73;;;;;;;21.04;75.52;99729.78;5157768;27;20095;-77
2021/08/11 06:57:13;;;;;;;54.80;20.33;;;;;;;20.99;76.27;99736.53;5156729;27;20054;-79
2021/08/11 06:59:39;;;;;;;48.70;20.60;;;;;;;20.93;76.57;99725.69;5138823;27;20503;-82
2021/08/11 07:02:05;;;;;;;47.33;19.95;;;;;;;20.93;76.93;99728.38;5158084;27;20042;-79
2021/08/11 07:04:34;;;;;;;61.58;21.42;;;;;;;20.87;77.20;99727.25;5138605;27;20126;-77
2021/08/11 07:07:00;;;;;;;46.28;19.67;;;;;;;20.85;77.04;99732.00;5138355;27;20582;-79
2021/08/11 07:09:26;;;;;;;49.80;19.83;;;;;;;20.82;77.25;99735.03;5158773;27;20118;-77
2021/08/11 07:11:52;;;;;;;54.17;19.98;;;;;;;20.85;77.22;99729.31;5138252;27;20137;-82
2021/08/11 07:14:17;;;;;;;46.55;19.40;;;;;;;20.84;77.25;99728.47;5137697;27;20133;-83
2021/08/11 07:16:43;;;;;;;43.20;20.20;;;;;;;20.84;77.49;99731.16;5158522;27;20034;-80
2021/08/11 07:19:09;;;;;;;49.97;20.23;;;;;;;20.83;77.60;99729.47;5137889;27;20407;-76
2021/08/11 07:21:35;;;;;;;45.30;19.90;;;;;;;20.82;77.37;99737.72;5156797;27;20039;-79
2021/08/11 07:24:01;;;;;;;44.85;18.45;;;;;;;20.84;76.63;99731.16;5138164;27;20464;-82
2021/08/11 07:26:27;;;;;;;48.95;19.08;;;;;;;20.92;76.93;99729.41;5121089;27;20038;-77
2021/08/11 07:29:00;;;;;;;39.97;18.90;;;;;;;21.00;76.93;99732.84;5104554;27;20041;-82
2021/08/11 07:31:26;;;;;;;52.45;19.85;;;;;;;21.08;76.53;99729.22;5120858;27;20034;-81
2021/08/11 07:33:52;;;;;;;44.22;19.25;;;;;;;21.17;75.96;99732.63;5156355;27;20046;-80
2021/08/11 07:36:17;;;;;;;48.03;19.38;;;;;;;21.22;76.15;99732.94;5137424;27;20045;-79
2021/08/11 07:38:43;;;;;;;47.03;20.63;;;;;;;21.28;76.16;99731.34;5137087;27;20055;-81
2021/08/11 07:41:09;;;;;;;46.15;20.85;;;;;;;21.32;76.75;99729.94;5157520;27;20578;-86
2021/08/11 07:43:35;;;;;;;47.75;23.05;;;;;;;21.42;77.26;99732.34;5156433;27;20107;-77
2021/08/11 07:46:00;;;;;;;45.47;23.33;;;;;;;21.48;76.56;99729.75;5138318;27;20402;-84
2021/08/11 07:48:26;;;;;;;51.63;24.20;;;;;;;21.54;75.46;99730.00;5137366;27;20531;-78
2021/08/11 07:50:52;;;;;;;46.17;25.08;;;;;;;21.54;75.37;99730.00;5155921;27;20034;-84
2021/08/11 07:53:18;;;;;;;48.00;24.90;;;;;;;21.54;75.78;99721.94;5102920;27;20547;-78
2021/08/11 07:55:43;;;;;;;49.05;24.38;;;;;;;21.58;75.55;99725.94;5138247;27;20073;-80
2021/08/11 07:58:09;;;;;;;49.67;25.92;;;;;;;21.71;76.05;99722.56;5156255;27;20050;-81
2021/08/11 08:00:35;;;;;;;60.55;28.27;;;;;;;21.72;76.41;99725.09;5120074;27;20042;-79
2021/08/11 08:03:01;;;;;;;43.80;24.02;;;;;;;21.79;75.42;99723.31;5136744;27;20556;-82
2021/08/11 08:05:27;;;;;;;47.33;25.58;;;;;;;21.78;76.31;99718.94;5155154;27;20470;-79
2021/08/11 08:07:52;;;;;;;42.42;24.42;;;;;;;21.91;74.80;99720.09;5155634;27;20121;-79
2021/08/11 08:10:19;;;;;;;40.85;23.52;;;;;;;21.93;74.31;99716.19;5155886;27;20400;-80
2021/08/11 08:12:45;;;;;;;49.33;25.27;;;;;;;21.95;74.01;99713.31;5137540;27;20050;-85
2021/08/11 08:15:12;;;;;;;47.78;24.13;;;;;;;22.05;73.83;99718.38;5137997;27;20494;-80
2021/08/11 08:17:38;;;;;;;;;;;;;;;22.06;73.68;99717.34;5156382;27;20369;-81
2021/08/11 08:20:04;;;;;;;37.35;22.17;;;;;;;22.21;73.33;99714.59;5155165;27;19967;-79
2021/08/11 08:22:30;;;;;;;42.60;22.27;;;;;;;22.18;73.04;99699.66;5155185;27;20035;-82
2021/08/11 08:24:56;;;;;;;34.03;20.15;;;;;;;22.05;73.51;99713.81;5103493;27;20039;-79
2021/08/11 08:27:23;;;;;;;44.80;21.48;;;;;;;22.02;73.51;99702.59;5139000;27;20648;-79
2021/08/11 08:29:52;;;;;;;41.08;21.77;;;;;;;21.98;73.48;99702.13;5155984;27;20053;-79
2021/08/11 08:32:18;;;;;;;42.08;22.30;;;;;;;21.88;73.88;99707.00;5155502;27;20169;-84
2021/08/11 08:34:44;;;;;;;43.28;22.90;;;;;;;21.88;73.69;99701.63;5136800;27;20093;-80
2021/08/11 08:37:10;;;;;;;47.65;24.48;;;;;;;22.03;74.35;99705.09;5155120;27;20050;-77
2021/08/11 08:39:36;;;;;;;45.72;24.33;;;;;;;21.97;74.57;99700.50;5119823;27;20047;-81
2021/08/11 08:42:02;;;;;;;45.80;24.52;;;;;;;22.00;75.41;99700.09;5137114;27;20038;-80
2021/08/11 08:44:28;;;;;;;44.73;25.00;;;;;;;22.01;75.65;99707.16;5120174;27;20125;-82
2021/08/11 08:46:55;;;;;;;46.38;24.40;;;;;;;22.04;75.05;99690.59;5154902;27;20373;-79
2021/08/11 08:49:21;;;;;;;53.55;25.40;;;;;;;22.07;75.19;99692.91;5136960;27;20035;-82
2021/08/11 08:51:49;;;;;;;45.80;26.30;;;;;;;22.16;75.44;99699.00;5120847;27;20053;-79
2021/08/11 08:54:23;;;;;;;51.83;26.27;;;;;;;22.16;75.54;99698.16;5155213;27;20041;-78
2021/08/11 08:56:49;;;;;;;47.38;24.83;;;;;;;22.05;76.09;99703.03;5137042;27;20039;-81
2021/08/11 08:59:15;;;;;;;45.20;26.08;;;;;;;22.12;76.47;99695.03;5136220;27;20038;-81
2021/08/11 09:01:41;;;;;;;48.80;26.55;;;;;;;22.20;76.66;99694.06;5136750;27;20415;-80
2021/08/11 09:04:07;;;;;;;52.08;27.08;;;;;;;22.20;76.10;99688.66;5136346;27;20519;-81
2021/08/11 09:06:33;;;;;;;51.17;26.90;;;;;;;22.20;76.08;99685.97;5154298;27;20131;-81
2021/08/11 09:09:03;;;;;;;;;;;;;;;22.23;75.79;99688.25;5118870;27;20030;-78
2021/08/11 09:11:29;;;;;;;55.40;27.08;;;;;;;22.17;76.31;99689.03;5136221;27;20057;-78
2021/08/11 09:14:22;;;;;;;52.53;26.98;;;;;;;22.06;76.29;99690.41;5137191;27;20054;-79
2021/08/11 09:16:53;;;;;;;52.38;28.63;;;;;;;22.07;75.65;99687.53;5119517;27;20070;-79
2021/08/11 09:19:20;;;;;;;57.10;28.80;;;;;;;21.97;75.99;99684.31;5137343;27;20081;-81
2021/08/11 09:22:03;;;;;;;50.03;28.33;;;;;;;21.98;76.80;99689.50;5103180;27;20035;-80
2021/08/11 09:24:33;;;;;;;48.08;27.60;;;;;;;21.98;76.55;99684.13;5102526;27;20047;-77
2021/08/11 09:27:23;;;;;;;45.50;26.27;;;;;;;21.92;76.46;99684.03;5136589;27;20558;-78
2021/08/11 09:30:17;;;;;;;43.08;23.23;;;;;;;21.94;76.06;99680.16;5139309;27;20161;-80
2021/08/11 09:32:51;;;;;;;47.63;24.60;;;;;;;21.86;75.71;99693.75;5137493;27;20089;-80
2021/08/11 09:35:19;;;;;;;48.70;27.20;;;;;;;21.83;76.96;99682.53;5155193;27;20043;-80
2021/08/11 09:37:45;;;;;;;48.28;27.13;;;;;;;21.73;77.13;99689.06;5154427;27;20054;-78
2021/08/11 09:40:13;;;;;;;52.67;27.15;;;;;;;21.72;76.96;99689.22;5155372;27;20038;-82
2021/08/11 09:42:39;;;;;;;46.83;25.90;;;;;;;21.76;77.30;99702.13;5155055;27;20087;-79
2021/08/11 09:45:08;;;;;;;47.10;24.45;;;;;;;21.87;78.03;99697.25;5153872;27;20407;-79
2021/08/11 09:47:34;;;;;;;55.03;26.58;;;;;;;21.98;77.54;99702.13;5153963;27;20086;-83
2021/08/11 09:50:07;;;;;;;43.63;26.05;;;;;;;21.80;76.77;99706.09;5154183;27;20049;-81
2021/08/11 09:52:50;;;;;;;39.05;21.83;;;;;;;21.69;75.77;99709.28;5153958;27;20046;-77
2021/08/11 09:55:16;;;;;;;43.78;23.75;;;;;;;21.58;76.45;99715.19;5136121;27;20084;-81
2021/08/11 09:57:43;;;;;;;41.58;22.02;;;;;;;21.47;76.38;99717.31;5155132;27;20062;-78
2021/08/11 10:00:14;;;;;;;45.67;24.98;;;;;;;21.36;77.30;99725.88;5135275;27;20051;-77
2021/08/11 10:02:41;;;;;;;47.17;24.77;;;;;;;21.31;78.18;99729.13;5140569;27;20444;-77
2021/08/11 10:05:09;;;;;;;50.60;26.42;;;;;;;21.24;78.28;99716.59;5114651;28;20126;-79
2021/08/11 10:07:35;;;;;;;45.92;24.65;;;;;;;21.19;78.28;99713.66;5114906;28;20066;-78
2021/08/11 10:10:07;;;;;;;45.35;22.02;;;;;;;21.21;78.28;99712.44;5135152;28;20593;-77
2021/08/11 10:12:34;;;;;;;50.17;23.30;;;;;;;21.24;78.03;99712.03;5116644;28;20728;-77
2021/08/11 10:15:03;;;;;;;;;;;;;;;21.25;77.21;99712.91;5135480;27;20482;-76
2021/08/11 10:17:30;;;;;;;51.88;19.95;;;;;;;21.23;76.81;99704.16;5116012;27;20536;-77
2021/08/11 10:20:00;;;;;;;53.95;22.08;;;;;;;21.24;76.59;99716.59;5138080;27;20045;-78
2021/08/11 10:22:28;;;;;;;43.42;20.40;;;;;;;21.20;76.79;99715.28;5118915;27;20058;-77
2021/08/11 10:24:56;;;;;;;60.75;22.52;;;;;;;21.12;77.12;99708.16;5102492;27;20074;-79
2021/08/11 10:27:22;;;;;;;57.05;22.83;;;;;;;21.10;77.53;99713.72;5119858;27;20550;-76
2021/08/11 10:29:48;;;;;;;60.47;22.65;;;;;;;21.12;77.64;99705.47;5120001;27;20062;-80
2021/08/11 10:32:14;;;;;;;67.80;23.20;;;;;;;21.09;77.90;99708.53;5119084;27;20054;-84
2021/08/11 10:34:46;;;;;;;73.38;25.58;;;;;;;21.09;78.73;99709.38;5101909;27;20043;-81
2021/08/11 10:37:15;;;;;;;66.75;25.25;;;;;;;21.11;78.75;99712.72;5102592;27;20407;-78
2021/08/11 10:39:41;;;;;;;57.88;23.92;;;;;;;21.05;78.67;99713.47;5138216;27;20392;-80
2021/08/11 10:42:12;;;;;;;49.92;22.42;;;;;;;20.96;78.96;99715.41;5140811;27;20138;-79
2021/08/11 10:44:38;;;;;;;50.03;22.55;;;;;;;20.85;78.62;99714.00;5139618;27;20099;-81
2021/08/11 10:47:06;;;;;;;47.10;23.08;;;;;;;20.85;79.21;99713.19;5115113;28;20048;-78
2021/08/11 10:50:10;;;;;;;43.42;23.27;;;;;;;20.80;78.86;99707.53;5115574;28;20040;-77
2021/08/11 10:52:36;;;;;;;45.13;22.98;;;;;;;20.74;78.98;99703.72;5115445;28;20055;-78
2021/08/11 10:55:04;;;;;;;37.67;20.90;;;;;;;20.73;78.71;99703.91;5117160;28;20047;-82
2021/08/11 10:57:40;;;;;;;44.90;21.70;;;;;;;20.73;79.14;99704.72;5114573;28;20050;-79
2021/08/11 11:00:21;;;;;;;54.08;24.38;;;;;;;20.74;79.22;99701.03;5117094;27;20046;-78
2021/08/11 11:02:49;;;;;;;44.65;21.38;;;;;;;20.78;78.78;99686.19;5116035;28;20032;-78
2021/08/11 11:05:14;;;;;;;49.95;20.05;;;;;;;20.82;78.36;99684.81;5097469;28;20040;-80
2021/08/11 11:07:40;;;;;;;60.13;28.95;;;;;;;20.85;78.93;99691.69;5098605;28;20059;-77
2021/08/11 11:10:25;;;;;;;48.67;21.35;;;;;;;20.81;78.60;99675.06;5116647;28;20039;-81
2021/08/11 11:12:51;;;;;;;46.25;22.63;;;;;;;20.91;79.70;99671.25;5097784;28;20078;-78
2021/08/11 11:15:39;;;;;;;38.28;19.23;;;;;;;20.95;79.12;99659.13;5116439;28;20508;-80
2021/08/11 11:18:11;;;;;;;37.33;19.38;;;;;;;21.10;78.61;99654.56;5116491;28;20139;-79
2021/08/11 11:20:37;;;;;;;33.78;19.95;;;;;;;21.20;78.45;99651.59;5115507;28;20417;-78
2021/08/11 11:23:05;;;;;;;42.38;21.63;;;;;;;21.26;78.42;99639.22;5114882;28;20055;-79